Time;durP1;ratioP1;P1;durP2;ratioP2;P2;SDS_P1;SDS_P2;PMS_P1;PMS_P2;Temp;Humidity;BMP_temperature;BMP_pressure;BME280_temperature;BME280_humidity;BME280_pressure;Samples;Min_cycle;Max_cycle;Signal;HPM_P1;HPM_P2
2023/05/16 00:00:47;;;;;;;16.95;6.57;;;;;;;10.93;100.00;101235.44;5028240;28;20053;-72
2023/05/16 00:03:14;;;;;;;17.17;7.88;;;;;;;10.93;100.00;101246.56;5027041;28;20056;-71
2023/05/16 00:05:41;;;;;;;14.20;5.78;;;;;;;10.83;100.00;101244.63;5025620;28;20049;-72
2023/05/16 00:08:07;;;;;;;16.38;6.53;;;;;;;10.81;100.00;101238.69;5027329;28;20590;-72
2023/05/16 00:10:34;;;;;;;18.77;7.90;;;;;;;10.84;100.00;101243.41;5027536;28;20764;-70
2023/05/16 00:13:00;;;;;;;11.93;4.78;;;;;;;10.72;100.00;101235.56;5027018;28;20061;-72
2023/05/16 00:15:28;;;;;;;17.10;7.22;;;;;;;10.79;100.00;101255.00;5026900;28;20045;-72
2023/05/16 00:17:58;;;;;;;18.23;7.45;;;;;;;10.84;100.00;101248.97;5023771;28;20045;-72
2023/05/16 00:20:26;;;;;;;16.10;6.80;;;;;;;10.77;100.00;101249.03;5028009;28;20050;-70
2023/05/16 00:22:54;;;;;;;15.30;5.88;;;;;;;10.76;100.00;101246.66;5031516;28;20072;-72
2023/05/16 00:25:20;;;;;;;14.73;6.32;;;;;;;10.75;100.00;101251.44;5027899;28;20059;-72
2023/05/16 00:27:47;;;;;;;16.15;7.00;;;;;;;10.78;100.00;101256.19;5028019;28;20064;-71
2023/05/16 00:30:13;;;;;;;19.80;6.95;;;;;;;10.80;100.00;101256.56;5022813;28;20136;-72
2023/05/16 00:32:40;;;;;;;14.55;5.40;;;;;;;10.80;100.00;101259.34;5024818;28;21218;-74
2023/05/16 00:35:09;;;;;;;13.88;5.55;;;;;;;10.86;100.00;101262.50;5029007;28;20049;-71
2023/05/16 00:37:37;;;;;;;11.35;4.07;;;;;;;10.74;100.00;101260.97;5026320;28;20500;-71
2023/05/16 00:40:04;;;;;;;12.20;4.35;;;;;;;10.64;100.00;101256.28;5028430;28;20234;-72
2023/05/16 00:42:31;;;;;;;11.07;4.20;;;;;;;10.56;100.00;101265.06;5026970;28;20045;-71
2023/05/16 00:44:58;;;;;;;8.93;3.33;;;;;;;10.43;100.00;101250.78;5026915;28;20049;-72
2023/05/16 00:47:25;;;;;;;7.70;3.20;;;;;;;10.52;100.00;101270.63;5023813;28;20056;-75
2023/05/16 00:49:51;;;;;;;9.27;3.53;;;;;;;10.44;100.00;101274.63;5027798;28;20049;-75
2023/05/16 00:52:18;;;;;;;10.52;2.92;;;;;;;10.39;100.00;101265.91;5022515;28;20049;-72
2023/05/16 00:54:45;;;;;;;6.20;2.47;;;;;;;10.31;100.00;101269.91;5022801;28;20049;-71
2023/05/16 00:57:11;;;;;;;6.78;2.85;;;;;;;10.28;100.00;101265.16;5026581;28;20045;-72
2023/05/16 00:59:39;;;;;;;4.55;2.20;;;;;;;10.25;100.00;101277.88;5023751;28;20057;-73
2023/05/16 01:02:05;;;;;;;4.90;2.75;;;;;;;10.29;100.00;101272.31;5022584;28;20049;-72
2023/05/16 01:04:32;;;;;;;6.82;2.95;;;;;;;10.33;100.00;101276.63;5018469;28;20708;-72
2023/05/16 01:07:00;;;;;;;8.30;3.83;;;;;;;10.23;100.00;101266.34;5025518;28;20140;-73
2023/05/16 01:09:27;;;;;;;8.93;3.67;;;;;;;10.17;100.00;101272.72;5026143;28;20084;-72
2023/05/16 01:12:31;;;;;;;7.13;3.47;;;;;;;10.11;100.00;101272.34;5025632;28;20045;-72
2023/05/16 01:15:08;;;;;;;5.30;2.40;;;;;;;10.03;100.00;101285.47;5023140;28;20057;-72
2023/05/16 01:18:21;;;;;;;5.85;2.50;;;;;;;9.98;100.00;101291.44;5024653;28;20512;-72
2023/05/16 01:21:08;;;;;;;8.95;3.55;;;;;;;9.78;100.00;101286.66;5015804;28;20056;-72
2023/05/16 01:24:03;;;;;;;6.18;2.55;;;;;;;9.87;100.00;101301.72;5029159;28;20055;-72
2023/05/16 01:26:31;;;;;;;8.98;2.97;;;;;;;9.76;100.00;101314.06;5022043;28;20045;-73
2023/05/16 01:28:58;;;;;;;6.10;2.70;;;;;;;9.62;100.00;101305.69;5023337;28;20099;-72
2023/05/16 01:31:25;;;;;;;5.15;2.28;;;;;;;9.56;100.00;101302.53;5023217;28;20048;-73
2023/05/16 01:33:51;;;;;;;8.48;2.45;;;;;;;9.56;100.00;101313.63;5019721;28;20076;-73
2023/05/16 01:36:24;;;;;;;12.30;3.00;;;;;;;9.52;100.00;101312.84;5025122;28;20081;-73
2023/05/16 01:39:21;;;;;;;12.93;2.67;;;;;;;9.49;100.00;101310.84;5019567;28;20049;-74
2023/05/16 01:42:05;;;;;;;12.27;3.10;;;;;;;9.40;100.00;101321.56;5025177;28;20121;-74
2023/05/16 01:44:43;;;;;;;12.77;2.90;;;;;;;9.40;100.00;101329.91;5017279;28;20159;-73
2023/05/16 01:47:13;;;;;;;13.30;3.20;;;;;;;9.41;100.00;101323.16;5025199;28;20086;-73
2023/05/16 01:49:53;;;;;;;14.93;3.38;;;;;;;9.43;100.00;101331.09;5027918;28;20526;-73
2023/05/16 01:52:37;;;;;;;10.82;3.13;;;;;;;9.35;100.00;101326.69;5021709;28;20051;-74
2023/05/16 01:55:11;;;;;;;11.65;3.65;;;;;;;9.34;100.00;101336.22;5026363;28;20155;-74
2023/05/16 01:57:39;;;;;;;13.80;3.55;;;;;;;9.31;100.00;101329.47;5026970;28;20046;-73
2023/05/16 02:00:07;;;;;;;10.10;3.33;;;;;;;9.30;100.00;101335.44;5022839;28;20544;-72
2023/05/16 02:02:33;;;;;;;11.18;3.30;;;;;;;9.31;100.00;101337.00;5024699;28;20046;-73
2023/05/16 02:05:00;;;;;;;16.73;3.63;;;;;;;9.37;100.00;101343.75;5025010;28;20049;-73
2023/05/16 02:07:27;;;;;;;15.15;3.72;;;;;;;9.30;100.00;101333.47;5020187;28;20057;-72
2023/05/16 02:09:53;;;;;;;15.23;3.80;;;;;;;9.26;100.00;101345.72;5027654;28;20534;-75
2023/05/16 02:12:19;;;;;;;13.52;3.40;;;;;;;9.25;100.00;101346.94;5017493;28;20049;-73
2023/05/16 02:14:46;;;;;;;14.00;4.13;;;;;;;9.24;100.00;101340.56;5026554;28;20107;-73
2023/05/16 02:17:12;;;;;;;10.93;3.58;;;;;;;9.27;100.00;101350.09;5018672;28;20054;-73
2023/05/16 02:19:39;;;;;;;14.95;4.05;;;;;;;9.22;100.00;101347.72;5021020;28;20059;-72
2023/05/16 02:22:05;;;;;;;16.98;4.82;;;;;;;9.23;100.00;101343.75;5018936;28;20050;-74
2023/05/16 02:24:32;;;;;;;18.77;3.85;;;;;;;9.19;100.00;101352.03;5025095;28;20053;-74
2023/05/16 02:26:59;;;;;;;19.92;5.03;;;;;;;9.26;100.00;101354.06;5019523;28;20412;-73
2023/05/16 02:29:26;;;;;;;17.27;4.10;;;;;;;9.27;100.00;101350.09;5018829;28;20045;-74
2023/05/16 02:31:53;;;;;;;11.32;3.13;;;;;;;9.22;100.00;101348.47;5026168;28;20056;-74
2023/05/16 02:34:19;;;;;;;14.40;4.00;;;;;;;9.25;100.00;101342.16;5026832;28;20061;-72
2023/05/16 02:36:46;;;;;;;22.23;4.75;;;;;;;9.31;100.00;101362.78;5026583;28;20076;-73
2023/05/16 02:39:12;;;;;;;18.92;4.35;;;;;;;9.33;100.00;101354.06;5025286;28;20049;-74
2023/05/16 02:41:38;;;;;;;18.98;4.43;;;;;;;9.34;100.00;101355.66;5020732;28;20052;-72
2023/05/16 02:44:05;;;;;;;16.35;3.78;;;;;;;9.32;100.00;101363.59;5025035;28;20060;-72
2023/05/16 02:46:33;;;;;;;16.38;3.67;;;;;;;9.34;100.00;101363.97;5026983;28;20059;-71
2023/05/16 02:49:00;;;;;;;21.02;3.80;;;;;;;9.35;100.00;101368.31;5026443;28;20506;-74
2023/05/16 02:51:27;;;;;;;18.17;4.53;;;;;;;9.32;100.00;101375.47;5018879;28;20068;-72
2023/05/16 02:53:59;;;;;;;13.52;4.28;;;;;;;9.33;100.00;101376.25;5016952;28;20050;-73
2023/05/16 02:56:26;;;;;;;16.58;3.95;;;;;;;9.32;100.00;101374.69;5026622;28;20049;-74
2023/05/16 02:58:55;;;;;;;13.30;3.53;;;;;;;9.30;100.00;101382.59;5025072;28;20053;-74
2023/05/16 03:01:21;;;;;;;19.27;4.20;;;;;;;9.28;100.00;101379.41;5026253;28;20687;-74
2023/05/16 03:03:48;;;;;;;21.73;4.28;;;;;;;9.23;100.00;101388.94;5018314;28;20128;-74
2023/05/16 03:06:15;;;;;;;20.55;3.65;;;;;;;9.19;100.00;101387.34;5025860;28;20050;-73
2023/05/16 03:08:41;;;;;;;11.52;3.20;;;;;;;9.15;100.00;101395.63;5026615;28;20068;-74
2023/05/16 03:11:08;;;;;;;19.52;5.30;;;;;;;9.10;100.00;101396.03;5023812;28;20677;-74
2023/05/16 03:13:34;;;;;;;20.15;4.32;;;;;;;9.06;100.00;101399.97;5029783;28;20499;-73
2023/05/16 03:16:01;;;;;;;22.10;3.95;;;;;;;9.00;100.00;101401.53;5029085;28;20049;-74
2023/05/16 03:18:28;;;;;;;13.73;3.10;;;;;;;8.99;100.00;101399.94;5022897;28;20050;-69
2023/05/16 03:20:55;;;;;;;20.27;4.00;;;;;;;9.04;100.00;101405.09;5030355;28;20498;-74
2023/05/16 03:23:21;;;;;;;13.80;3.47;;;;;;;9.04;100.00;101413.41;5029268;28;20132;-74
2023/05/16 03:25:48;;;;;;;13.48;3.80;;;;;;;9.02;100.00;101418.56;5026972;28;20049;-71
2023/05/16 03:28:16;;;;;;;17.23;3.38;;;;;;;8.99;100.00;101414.63;5029833;28;20049;-72
2023/05/16 03:30:43;;;;;;;22.10;3.45;;;;;;;8.98;100.00;101415.00;5021724;28;20053;-75
2023/05/16 03:33:09;;;;;;;18.38;3.47;;;;;;;8.93;100.00;101418.13;5026999;28;20532;-71
2023/05/16 03:35:36;;;;;;;14.40;3.92;;;;;;;8.91;100.00;101412.19;5021895;28;20503;-73
2023/05/16 03:38:03;;;;;;;15.90;4.30;;;;;;;8.89;100.00;101415.38;5019997;28;20432;-72
2023/05/16 03:40:30;;;;;;;15.80;3.38;;;;;;;8.74;100.00;101418.44;5030638;28;20802;-72
2023/05/16 03:42:56;;;;;;;12.52;2.38;;;;;;;8.66;100.00;101416.81;5025806;28;20072;-72
2023/05/16 03:45:23;;;;;;;18.50;3.80;;;;;;;8.73;100.00;101427.94;5018864;28;20045;-72
2023/05/16 03:47:50;;;;;;;14.02;2.88;;;;;;;8.57;100.00;101427.41;5025037;28;20057;-72
2023/05/16 03:50:17;;;;;;;17.58;3.70;;;;;;;8.54;100.00;101442.84;5019832;28;20177;-72
2023/05/16 03:52:43;;;;;;;9.07;2.97;;;;;;;8.49;100.00;101437.66;5028035;28;20052;-73
2023/05/16 03:55:13;;;;;;;19.05;4.07;;;;;;;8.42;100.00;101436.81;5012332;28;20065;-73
2023/05/16 03:57:41;;;;;;;11.95;3.10;;;;;;;8.38;100.00;101447.09;5021798;28;20588;-72
2023/05/16 04:00:09;;;;;;;20.20;3.10;;;;;;;8.42;100.00;101442.38;5028215;28;20489;-73
2023/05/16 04:02:36;;;;;;;19.05;3.95;;;;;;;8.41;100.00;101451.88;5015939;28;20416;-73
2023/05/16 04:05:03;;;;;;;18.70;3.72;;;;;;;8.28;100.00;101445.84;5027742;28;20168;-73
2023/05/16 04:07:30;;;;;;;17.42;3.13;;;;;;;8.26;100.00;101461.22;5027876;28;20068;-73
2023/05/16 04:09:57;;;;;;;17.98;3.30;;;;;;;8.22;100.00;101461.22;5023386;28;20057;-73
2023/05/16 04:12:24;;;;;;;15.45;3.10;;;;;;;8.13;100.00;101459.97;5029003;28;20041;-73
2023/05/16 04:14:50;;;;;;;22.33;3.70;;;;;;;8.07;100.00;101464.25;5025918;28;20064;-71
2023/05/16 04:17:17;;;;;;;18.17;3.67;;;;;;;8.01;100.00;101472.13;5026696;28;20156;-72
2023/05/16 04:19:44;;;;;;;21.38;3.83;;;;;;;8.04;100.00;101473.31;5023428;28;20492;-73
2023/05/16 04:22:10;;;;;;;19.40;3.92;;;;;;;7.99;100.00;101468.13;5028020;28;20053;-73
2023/05/16 04:24:37;;;;;;;15.20;3.25;;;;;;;7.95;100.00;101478.38;5025845;28;20528;-72
2023/05/16 04:27:04;;;;;;;16.27;3.42;;;;;;;7.89;100.00;101479.91;5029155;28;20164;-73
2023/05/16 04:29:31;;;;;;;22.63;3.88;;;;;;;7.89;100.00;101485.44;5027959;28;20061;-73
2023/05/16 04:31:57;;;;;;;20.85;3.83;;;;;;;7.86;100.00;101489.00;5028293;28;20063;-73
2023/05/16 04:34:26;;;;;;;22.40;3.70;;;;;;;7.81;100.00;101492.09;5026721;28;20049;-73
2023/05/16 04:36:54;;;;;;;22.85;4.40;;;;;;;7.81;100.00;101492.88;5016872;28;20064;-72
2023/05/16 04:39:21;;;;;;;21.65;3.65;;;;;;;7.77;100.00;101505.91;5027972;28;20491;-73
2023/05/16 04:41:47;;;;;;;22.13;3.90;;;;;;;7.79;100.00;101502.72;5020662;28;20051;-73
2023/05/16 04:44:14;;;;;;;19.15;4.82;;;;;;;7.79;100.00;101502.72;5016505;28;20516;-73
2023/05/16 04:46:40;;;;;;;17.00;3.83;;;;;;;7.84;100.00;101516.25;5023465;28;20401;-73
2023/05/16 04:49:07;;;;;;;21.67;3.58;;;;;;;7.80;100.00;101509.88;5027457;28;20771;-73
2023/05/16 04:51:33;;;;;;;18.48;3.72;;;;;;;7.82;100.00;101516.63;5027553;28;20072;-73
2023/05/16 04:54:00;;;;;;;18.77;3.85;;;;;;;7.80;100.00;101521.72;5026977;28;20054;-73
2023/05/16 04:56:26;;;;;;;15.02;3.42;;;;;;;7.80;100.00;101518.19;5017248;28;20053;-73
2023/05/16 04:58:53;;;;;;;16.30;4.07;;;;;;;7.83;100.00;101520.97;5024018;28;20595;-73
2023/05/16 05:01:20;;;;;;;18.92;3.40;;;;;;;7.84;100.00;101527.31;5028021;28;20563;-73
2023/05/16 05:03:46;;;;;;;17.05;3.40;;;;;;;7.76;100.00;101523.66;5025356;28;20089;-72
2023/05/16 05:06:14;;;;;;;23.35;4.40;;;;;;;7.74;100.00;101528.81;5028501;28;20132;-73
2023/05/16 05:08:40;;;;;;;23.27;4.38;;;;;;;7.79;100.00;101525.69;5028025;28;20049;-73
2023/05/16 05:11:07;;;;;;;17.50;3.92;;;;;;;7.85;100.00;101532.47;5027887;28;20083;-71
2023/05/16 05:13:33;;;;;;;16.77;4.03;;;;;;;7.82;100.00;101537.97;5024760;28;20049;-72
2023/05/16 05:16:00;;;;;;;16.60;4.15;;;;;;;7.86;100.00;101542.38;5025513;28;20064;-73
2023/05/16 05:18:27;;;;;;;22.13;3.45;;;;;;;7.89;100.00;101538.03;5025396;28;20177;-73
2023/05/16 05:20:54;;;;;;;19.95;4.10;;;;;;;7.93;100.00;101539.66;5028124;28;20103;-72
2023/05/16 05:23:20;;;;;;;14.68;3.33;;;;;;;7.97;100.00;101545.25;5015879;28;20053;-73
2023/05/16 05:25:47;;;;;;;21.92;3.97;;;;;;;7.97;100.00;101545.25;5013600;28;20072;-72
2023/05/16 05:28:13;;;;;;;18.55;3.80;;;;;;;7.93;100.00;101547.97;5023394;28;20107;-73
2023/05/16 05:30:40;;;;;;;15.15;3.20;;;;;;;8.00;100.00;101548.06;5027162;28;20058;-73
2023/05/16 05:33:10;;;;;;;16.38;3.28;;;;;;;7.99;100.00;101553.97;5018051;28;20682;-73
2023/05/16 05:35:37;;;;;;;13.27;3.38;;;;;;;8.09;100.00;101556.84;5015328;28;20063;-73
2023/05/16 05:38:03;;;;;;;15.63;3.58;;;;;;;8.17;100.00;101554.97;5021860;28;20569;-72
2023/05/16 05:40:30;;;;;;;21.50;4.13;;;;;;;8.20;100.00;101559.75;5017294;28;20543;-73
2023/05/16 05:42:56;;;;;;;16.17;3.40;;;;;;;8.23;100.00;101572.81;5020722;28;20042;-72
2023/05/16 05:45:23;;;;;;;19.52;3.70;;;;;;;8.31;100.00;101566.19;5025979;28;20103;-71
2023/05/16 05:47:49;;;;;;;22.30;3.30;;;;;;;8.26;100.00;101569.28;5026583;28;20455;-73
2023/05/16 05:50:16;;;;;;;18.50;3.50;;;;;;;8.32;100.00;101570.53;5019410;28;20053;-72
2023/05/16 05:52:43;;;;;;;18.23;3.55;;;;;;;8.35;100.00;101578.09;5027139;28;20049;-73
2023/05/16 05:55:09;;;;;;;23.90;3.92;;;;;;;8.37;100.00;101570.97;5026644;28;20075;-73
2023/05/16 05:57:36;;;;;;;16.02;3.15;;;;;;;8.47;100.00;101578.59;5023960;28;20870;-72
2023/05/16 06:00:04;;;;;;;19.88;2.63;;;;;;;8.50;100.00;101575.06;5027608;28;20083;-73
2023/05/16 06:02:30;;;;;;;16.13;3.15;;;;;;;8.61;100.00;101589.00;5025924;28;20060;-73
2023/05/16 06:04:57;;;;;;;20.23;4.07;;;;;;;8.58;100.00;101582.25;5026871;28;20045;-72
2023/05/16 06:07:23;;;;;;;18.73;3.55;;;;;;;8.68;100.00;101586.34;5020581;28;20614;-72
2023/05/16 06:09:50;;;;;;;23.42;3.78;;;;;;;8.68;100.00;101580.78;5020288;28;20061;-71
2023/05/16 06:12:17;;;;;;;17.60;3.28;;;;;;;8.75;100.00;101584.38;5023466;28;20057;-72
2023/05/16 06:14:43;;;;;;;22.67;3.53;;;;;;;8.86;100.00;101587.25;5018880;28;20045;-72
2023/05/16 06:17:10;;;;;;;15.00;3.85;;;;;;;8.92;100.00;101585.72;5024863;28;20502;-71
2023/05/16 06:19:37;;;;;;;18.83;3.30;;;;;;;9.02;100.00;101587.78;5021151;28;20124;-71
2023/05/16 06:22:03;;;;;;;17.25;2.97;;;;;;;9.12;100.00;101600.94;5026493;28;20064;-73
2023/05/16 06:24:30;;;;;;;11.32;3.17;;;;;;;9.09;100.00;101587.81;5024326;28;20057;-72
2023/05/16 06:26:56;;;;;;;14.80;3.67;;;;;;;9.17;100.00;101589.44;5026535;28;20061;-72
2023/05/16 06:29:23;;;;;;;13.10;2.97;;;;;;;9.23;100.00;101591.50;5025858;28;20049;-72
2023/05/16 06:31:50;;;;;;;16.75;2.95;;;;;;;9.33;100.00;101598.28;5025876;28;20057;-73
2023/05/16 06:34:16;;;;;;;17.42;3.40;;;;;;;9.38;100.00;101595.13;5023408;28;20057;-73
2023/05/16 06:36:43;;;;;;;16.40;3.42;;;;;;;9.50;100.00;101595.59;5026136;28;20045;-74
2023/05/16 06:39:10;;;;;;;25.05;5.53;;;;;;;9.60;100.00;101602.38;5013336;28;20053;-73
2023/05/16 06:41:36;;;;;;;9.43;2.42;;;;;;;9.63;100.00;101602.38;5014401;28;20042;-71
2023/05/16 06:44:03;;;;;;;13.07;2.30;;;;;;;9.72;100.00;101602.03;5022545;28;20049;-74
2023/05/16 06:46:30;;;;;;;13.10;2.60;;;;;;;9.78;100.00;101608.78;5028819;28;20053;-73
2023/05/16 06:48:57;;;;;;;11.93;2.60;;;;;;;9.82;100.00;101604.84;5029739;28;20049;-72
2023/05/16 06:51:23;;;;;;;22.23;3.47;;;;;;;9.89;100.00;101592.97;5029899;28;20056;-72
2023/05/16 06:53:50;;;;;;;15.13;2.70;;;;;;;9.97;100.00;101591.81;5030158;28;20107;-73
2023/05/16 06:56:16;;;;;;;11.85;3.85;;;;;;;10.02;100.00;101582.34;5028895;28;20148;-72
2023/05/16 06:58:43;;;;;;;18.73;3.20;;;;;;;10.11;100.00;101589.09;5031236;28;20103;-73
2023/05/16 07:01:09;;;;;;;15.35;2.88;;;;;;;10.18;100.00;101591.09;5029562;28;20468;-74
2023/05/16 07:03:36;;;;;;;1.17;0.95;;;;;;;10.16;100.00;101591.47;5028187;28;20547;-74
2023/05/16 07:06:03;;;;;;;17.63;2.60;;;;;;;10.34;100.00;101591.53;5022532;28;20117;-75
2023/05/16 07:08:29;;;;;;;15.52;1.98;;;;;;;10.44;100.00;101602.66;5022631;28;20100;-74
2023/05/16 07:10:56;;;;;;;14.52;2.50;;;;;;;10.57;100.00;101598.28;5030356;28;20502;-73
2023/05/16 07:13:22;;;;;;;13.80;2.22;;;;;;;10.58;100.00;101597.13;5026450;28;20077;-72
2023/05/16 07:15:49;;;;;;;14.43;2.22;;;;;;;10.56;100.00;101598.72;5030031;28;20084;-72
2023/05/16 07:18:15;;;;;;;11.27;2.47;;;;;;;10.64;100.00;101609.44;5028581;28;20148;-71
2023/05/16 07:20:42;;;;;;;15.10;2.22;;;;;;;10.77;100.00;101593.16;5029016;28;20054;-73
2023/05/16 07:23:09;;;;;;;15.95;2.50;;;;;;;10.85;100.00;101605.84;5029290;28;20135;-72
2023/05/16 07:25:35;;;;;;;10.82;2.05;;;;;;;10.88;100.00;101596.72;5029274;28;20041;-73
2023/05/16 07:28:02;;;;;;;8.02;1.92;;;;;;;10.70;100.00;101587.59;5029686;28;20088;-73
2023/05/16 07:30:29;;;;;;;9.82;1.95;;;;;;;10.64;100.00;101598.31;5021096;28;20416;-72
2023/05/16 07:32:56;;;;;;;10.82;1.90;;;;;;;10.69;100.00;101597.91;5022570;28;20179;-72
2023/05/16 07:35:22;;;;;;;9.38;1.90;;;;;;;10.76;100.00;101597.09;5027919;28;20050;-72
2023/05/16 07:37:49;;;;;;;7.43;1.75;;;;;;;10.87;100.00;101601.47;5028051;28;20103;-72
2023/05/16 07:40:17;;;;;;;18.70;2.67;;;;;;;10.90;100.00;101606.25;5029765;28;20556;-70
2023/05/16 07:42:43;;;;;;;10.20;1.65;;;;;;;10.95;100.00;101605.06;5028886;28;20041;-68
2023/05/16 07:45:11;;;;;;;10.18;1.65;;;;;;;10.92;100.00;101608.63;5020469;28;20504;-72
2023/05/16 07:47:38;;;;;;;11.65;2.03;;;;;;;10.92;100.00;101600.28;5023185;28;20053;-73
2023/05/16 07:50:04;;;;;;;5.05;1.30;;;;;;;10.79;100.00;101601.88;5028474;28;20049;-72
2023/05/16 07:52:31;;;;;;;17.38;1.77;;;;;;;10.86;100.00;101611.03;5028773;28;20076;-71
2023/05/16 07:54:57;;;;;;;9.13;1.92;;;;;;;10.92;100.00;101611.41;5027733;28;20136;-72
2023/05/16 07:57:24;;;;;;;13.90;2.10;;;;;;;10.94;100.00;101609.03;5019694;28;20159;-72
2023/05/16 07:59:51;;;;;;;4.88;1.25;;;;;;;10.93;100.00;101613.78;5028515;28;20053;-71
2023/05/16 08:02:18;;;;;;;14.77;2.05;;;;;;;10.97;100.00;101617.38;5019461;28;20061;-72
2023/05/16 08:04:44;;;;;;;5.60;1.27;;;;;;;11.10;100.00;101615.75;5023023;28;20060;-72
2023/05/16 08:07:12;;;;;;;10.02;2.10;;;;;;;11.18;100.00;101617.34;5027653;28;20064;-72
2023/05/16 08:09:39;;;;;;;3.40;1.65;;;;;;;11.24;100.00;101618.56;5028991;28;20045;-74
2023/05/16 08:12:06;;;;;;;5.82;1.50;;;;;;;11.34;100.00;101614.94;5019529;28;20063;-72
2023/05/16 08:14:32;;;;;;;9.80;2.25;;;;;;;11.47;100.00;101613.34;5019583;28;20124;-72
2023/05/16 08:16:59;;;;;;;12.45;2.17;;;;;;;11.59;100.00;101615.69;5025206;28;20053;-74
2023/05/16 08:19:26;;;;;;;11.70;1.92;;;;;;;11.76;100.00;101608.47;5029535;28;20053;-74
2023/05/16 08:21:53;;;;;;;11.43;1.63;;;;;;;11.91;100.00;101621.94;5021780;28;20060;-74
2023/05/16 08:24:20;;;;;;;8.23;1.10;;;;;;;11.99;100.00;101615.09;5027336;28;20076;-73
2023/05/16 08:26:47;;;;;;;13.80;1.85;;;;;;;12.05;100.00;101619.06;5027828;28;20148;-72
2023/05/16 08:29:13;;;;;;;6.40;1.60;;;;;;;11.98;100.00;101633.03;5026066;28;20504;-74
2023/05/16 08:31:40;;;;;;;9.55;1.40;;;;;;;11.97;100.00;101625.09;5028991;28;20047;-74
2023/05/16 08:34:08;;;;;;;8.82;1.58;;;;;;;11.83;100.00;101619.56;5019699;28;20053;-72
2023/05/16 08:36:36;;;;;;;2.88;1.10;;;;;;;11.64;100.00;101618.06;5028479;28;20064;-74
2023/05/16 08:39:03;;;;;;;3.95;1.38;;;;;;;11.66;100.00;101620.44;5028572;28;20057;-75
2023/05/16 08:41:30;;;;;;;7.88;1.40;;;;;;;11.55;100.00;101620.47;5024824;28;20116;-74
2023/05/16 08:43:57;;;;;;;7.47;1.67;;;;;;;11.53;100.00;101620.09;5021476;28;20067;-74
2023/05/16 08:46:25;;;;;;;11.15;1.92;;;;;;;11.52;100.00;101621.25;5026200;28;20072;-74
2023/05/16 08:48:53;;;;;;;4.97;1.48;;;;;;;11.54;100.00;101620.88;5027869;28;20045;-73
2023/05/16 08:51:20;;;;;;;5.93;1.15;;;;;;;11.61;100.00;101616.06;5027557;28;20057;-74
2023/05/16 08:53:56;;;;;;;9.70;1.42;;;;;;;11.61;100.00;101618.06;5021746;28;20121;-72
2023/05/16 08:56:24;;;;;;;16.30;1.92;;;;;;;11.76;100.00;101622.41;5020371;28;20180;-71
2023/05/16 08:58:53;;;;;;;6.18;1.23;;;;;;;11.81;100.00;101622.75;5028835;28;20042;-71
2023/05/16 09:01:21;;;;;;;10.45;1.55;;;;;;;11.98;100.00;101623.88;5018382;28;20063;-72
2023/05/16 09:03:49;;;;;;;11.27;2.10;;;;;;;12.09;100.00;101627.44;5027982;28;20532;-72
2023/05/16 09:06:16;;;;;;;4.75;1.20;;;;;;;12.14;100.00;101624.19;5025918;28;20076;-71
2023/05/16 09:08:43;;;;;;;10.38;1.50;;;;;;;12.29;100.00;101632.06;5028124;28;20060;-70
2023/05/16 09:11:10;;;;;;;9.15;1.73;;;;;;;12.43;100.00;101623.66;5027201;28;20475;-73
2023/05/16 09:13:38;;;;;;;6.43;1.70;;;;;;;12.60;100.00;101623.94;5023892;28;20550;-74
2023/05/16 09:16:13;;;;;;;4.43;1.13;;;;;;;12.65;100.00;101620.72;5023881;28;20057;-72
2023/05/16 09:18:43;;;;;;;7.65;1.65;;;;;;;12.67;100.00;101621.91;5026240;28;20119;-74
2023/05/16 09:21:11;;;;;;;6.78;1.45;;;;;;;12.76;100.00;101613.84;5012155;28;20111;-75
2023/05/16 09:23:38;;;;;;;7.43;1.70;;;;;;;12.86;100.00;101623.34;5021093;28;20119;-75
2023/05/16 09:26:06;;;;;;;8.57;1.50;;;;;;;13.11;100.00;101618.31;5008019;28;20084;-73
2023/05/16 09:28:36;;;;;;;7.75;1.23;;;;;;;13.17;100.00;101619.47;5026673;28;20041;-73
2023/05/16 09:31:03;;;;;;;7.28;1.20;;;;;;;13.19;100.00;101622.63;5024491;28;20068;-73
2023/05/16 09:33:30;;;;;;;8.05;1.95;;;;;;;13.05;100.00;101620.78;5025869;28;20045;-74
2023/05/16 09:35:58;;;;;;;7.35;1.50;;;;;;;13.04;100.00;101619.19;5010983;28;20199;-74
2023/05/16 09:38:26;;;;;;;6.43;1.33;;;;;;;12.65;100.00;101620.72;5018315;28;20157;-73
2023/05/16 09:40:54;;;;;;;10.25;2.60;;;;;;;12.73;100.00;101625.03;5016376;28;20168;-73
2023/05/16 09:43:24;;;;;;;10.90;2.00;;;;;;;12.91;100.00;101623.69;5022456;28;20504;-72
2023/05/16 09:45:51;;;;;;;13.07;1.67;;;;;;;13.09;100.00;101621.53;5024014;28;20539;-73
2023/05/16 09:48:18;;;;;;;11.48;1.55;;;;;;;13.17;100.00;101623.06;5020577;28;20053;-73
2023/05/16 09:50:51;;;;;;;10.38;1.35;;;;;;;13.32;100.00;101618.09;5024990;28;20501;-73
2023/05/16 09:53:29;;;;;;;7.78;1.50;;;;;;;13.55;100.00;101626.69;5023886;28;20416;-73
2023/05/16 09:56:07;;;;;;;4.93;1.00;;;;;;;13.65;99.90;101609.81;5014182;28;20080;-74
2023/05/16 09:58:38;;;;;;;6.50;1.52;;;;;;;13.72;98.59;101603.31;5015959;28;20053;-75
2023/05/16 10:01:06;;;;;;;6.00;1.13;;;;;;;13.82;100.00;101621.97;5025312;28;20136;-73
2023/05/16 10:03:41;;;;;;;10.75;1.63;;;;;;;14.00;100.00;101614.13;5016729;28;20049;-73
2023/05/16 10:06:08;;;;;;;1.38;0.75;;;;;;;14.30;100.00;101611.31;5025142;28;20057;-73
2023/05/16 10:08:35;;;;;;;4.63;0.98;;;;;;;14.40;95.98;101615.97;5020157;28;20081;-75
2023/05/16 10:11:04;;;;;;;7.20;1.77;;;;;;;14.52;99.33;101605.00;5026836;28;20057;-72
2023/05/16 10:13:35;;;;;;;9.68;1.33;;;;;;;14.64;100.00;101603.63;5012718;28;20045;-72
2023/05/16 10:16:08;;;;;;;8.00;1.25;;;;;;;14.74;100.00;101603.47;5026996;28;20233;-72
2023/05/16 10:18:37;;;;;;;10.90;1.50;;;;;;;14.74;98.20;101611.06;5020966;28;20103;-73
2023/05/16 10:21:06;;;;;;;6.20;1.27;;;;;;;14.58;95.85;101611.72;5025186;28;20160;-73
2023/05/16 10:23:40;;;;;;;8.32;2.17;;;;;;;14.46;99.77;101611.53;5026982;28;20051;-74
2023/05/16 10:26:08;;;;;;;7.00;1.60;;;;;;;14.34;97.87;101615.66;5026644;28;20780;-74
2023/05/16 10:28:35;;;;;;;8.25;1.38;;;;;;;14.26;97.97;101611.38;5027026;28;20053;-75
2023/05/16 10:31:03;;;;;;;8.18;1.00;;;;;;;14.38;100.00;101615.63;5025679;28;20049;-74
2023/05/16 10:33:30;;;;;;;8.05;1.27;;;;;;;14.42;100.00;101616.38;5018258;28;20045;-73
2023/05/16 10:35:57;;;;;;;4.32;1.35;;;;;;;14.40;100.00;101613.19;5027063;28;20115;-73
2023/05/16 10:38:27;;;;;;;6.70;1.40;;;;;;;14.54;100.00;101599.00;5021672;28;20578;-74
2023/05/16 10:40:54;;;;;;;4.03;2.55;;;;;;;14.59;100.00;101607.69;5026587;28;20550;-74
2023/05/16 10:43:25;;;;;;;8.88;1.27;;;;;;;14.55;100.00;101606.97;5025702;28;20092;-74
2023/05/16 10:46:02;;;;;;;6.43;1.05;;;;;;;14.76;99.13;101605.84;5026099;28;20607;-73
2023/05/16 10:48:37;;;;;;;5.28;1.27;;;;;;;14.93;99.99;101605.53;5020200;28;20128;-74
2023/05/16 10:51:22;;;;;;;4.97;1.38;;;;;;;15.04;100.00;101599.75;5026637;28;20088;-74
2023/05/16 10:53:53;;;;;;;10.53;1.73;;;;;;;14.99;99.98;101594.66;5025856;28;20041;-73
2023/05/16 10:56:25;;;;;;;10.32;1.40;;;;;;;14.92;100.00;101587.16;5025727;28;20206;-74
2023/05/16 10:58:54;;;;;;;3.97;1.10;;;;;;;15.11;100.00;101596.03;5026716;28;20122;-73
2023/05/16 11:01:28;;;;;;;7.63;1.02;;;;;;;15.26;100.00;101591.75;5025580;28;20103;-73
2023/05/16 11:06:28;;;;;;;8.57;1.65;;;;;;;15.22;100.00;101586.22;5026037;28;20076;-73
2023/05/16 11:11:45;;;;;;;14.27;2.17;;;;;;;15.83;100.00;101583.84;5017816;28;20045;-75
2023/05/16 11:14:48;;;;;;;13.05;1.92;;;;;;;15.90;100.00;101598.47;5024281;28;20053;-75
2023/05/16 11:17:20;;;;;;;8.00;1.60;;;;;;;16.27;99.07;101591.69;5024342;28;20084;-75
2023/05/16 11:19:57;;;;;;;9.82;1.77;;;;;;;16.16;98.59;101603.13;5026268;28;20046;-73
2023/05/16 11:22:28;;;;;;;8.07;1.77;;;;;;;15.94;99.25;101604.81;5024036;28;20049;-76
2023/05/16 11:25:00;;;;;;;10.07;1.83;;;;;;;15.60;100.00;101607.13;5025343;28;20056;-72
2023/05/16 11:27:36;;;;;;;9.00;1.48;;;;;;;15.36;100.00;101607.63;5012740;28;20049;-75